Terminal Aerodrome Forecast
Issued by NWS Bismarck, ND

Home | Current Version | Previous Version | Text Only | Print | Product List | Glossary Off
Versions: 1 2 3 4 5 6 7 8 9 10 11 12 13 14 15 16 17 18 19 20 21 22

000
FTUS43 KBIS 241800 AAA
TAFISN
TAF AMD
KISN 241801Z 2418/2518 27006KT P6SM -SN OVC009
     FM250100 22005KT P6SM OVC025
     FM251200 18007KT P6SM -SN OVC010
     FM251700 26007KT 1SM -SN OVC008=

USA.gov is the U.S. government's official web portal to all federal, state and local government web resources and services.